Wednesday, March 4, 2015, 3:12 PM EST
Back to Local

KCXY, Harrisburg Capital City

Location: New Cumberland, PA, United States Lat: 40.217
Local Time: 3:12 PM EST (20:12 GMT) Lon: -76.85
Time Zone: US/Eastern Elev: 347 ft

Show me the last for .
Show Decoded

2015-03-04 14:56 METAR KCXY 041956Z 34003KT 5SM -RA BR OVC031 06/04 A2988 RMK AO2 RAB47 SLP121
                 P0000 T00610044 =
2015-03-04 13:56 METAR KCXY 041856Z 00000KT 2 1/2SM BR FEW030 BKN044 BKN050 06/04 A2985 RMK AO2
                 RAE39 SLP114 P0003 T00610044 =
2015-03-04 13:04 METAR KCXY 041804Z 00000KT 2SM RA BR FEW032 BKN055 OVC085 06/04 A2987 RMK AO2
                 P0001 T00560044 =
2015-03-04 12:56 METAR KCXY 041756Z 00000KT 3SM -RA BR FEW030 BKN055 OVC090 06/04 A2987 RMK AO2
                 SLP120 P0002 60007 T00560044 10056 20011 58002 =
2015-03-04 12:53 METAR KCXY 041753Z 00000KT 2 1/2SM -RA BR FEW030 BKN070 OVC090 06/04 A2988 RMK
                 AO2 P0001 =
2015-03-04 11:56 METAR KCXY 041656Z 00000KT 3SM -RA BR FEW039 BKN080 OVC095 04/03 A2989 RMK AO2
                 RAB06E40B56 SLP124 P0000 T00440033 =
2015-03-04 11:11 METAR KCXY 041611Z 15004KT 3SM -RA BR FEW070 OVC100 04/03 A2988 RMK AO2 RAB06
                 P0000 T00390028 =
2015-03-04 10:56 METAR KCXY 041556Z 14003KT 2 1/2SM BR FEW060 SCT090 OVC110 03/02 A2988 RMK AO2
                 RAB02E26 SLP122 P0000 T00330022 =
2015-03-04 09:56 METAR KCXY 041456Z 00000KT 2SM BR FEW075 OVC095 02/01 A2989 RMK AO2 RAE11 SLP125
                 P0000 60005 T00220011 51004 =
2015-03-04 09:53 METAR KCXY 041453Z 00000KT 2SM BR OVC095 02/01 A2989 RMK AO2 RAE11 P0000 =
2015-03-04 09:19 METAR KCXY 041419Z 10005KT 1 3/4SM BR FEW065 SCT080 OVC095 01/01 A2988 RMK AO2
                 RAE11 P0000 T00110006 =
2015-03-04 08:56 METAR KCXY 041356Z 14004KT 2SM -RA BR BKN075 OVC090 01/01 A2989 RMK AO2 SLP125
                 P0001 T00110006 =
2015-03-04 08:48 METAR KCXY 041348Z 00000KT 2SM -RA BR OVC080 02/01 A2989 RMK AO2 P0001 T00170011
                 =
2015-03-04 08:33 METAR KCXY 041333Z 00000KT 1 1/2SM R08/6000VP6000FT -RA BR OVC085 01/01 A2988
                 RMK AO2 P0001 T00110006 =
2015-03-04 07:56 METAR KCXY 041256Z 25006KT 2 1/2SM -RA BR OVC095 02/01 A2988 RMK AO2 SLP121
                 P0004 T00170006 =
2015-03-04 07:06 METAR KCXY 041206Z 23006KT 3SM -RA BR OVC095 02/00 A2984 RMK AO2 P0000 T00170000
                 =
2015-03-04 06:56 METAR KCXY 041156Z 24004KT 2 1/2SM -RA BR OVC100 01/00 A2985 RMK AO2 RAB55
                 SLP112 P0002 60009 70010 T00110000 10017 20000 53017 =
2015-03-04 04:56 METAR KCXY 040956Z AUTO 29005KT 5SM -RA BR FEW080 OVC090 01/M01 A2981 RMK AO2
                 RAB06 SLP099 P0002 T00061006 =
2015-03-04 03:56 METAR KCXY 040856Z AUTO 34003KT 5SM BR FEW012 OVC085 01/M01 A2980 RMK AO2 SLP095
                 60002 T00061011 55007 =
2015-03-04 03:37 METAR KCXY 040837Z AUTO 00000KT 5SM BR SCT012 OVC085 01/M01 A2978 RMK AO2
                 T00061011 =
2015-03-04 03:11 METAR KCXY 040811Z AUTO 00000KT 5SM BR BKN011 OVC085 00/M01 A2979 RMK AO2
                 T00001011 =
2015-03-04 02:56 METAR KCXY 040756Z AUTO 00000KT 5SM BR FEW011 OVC080 00/M02 A2977 RMK AO2 SLP087
                 T00001017 =
2015-03-04 02:31 METAR KCXY 040731Z AUTO 00000KT 6SM BR FEW010 BKN047 OVC080 00/M02 A2980 RMK AO2
                 T00001017 =
2015-03-04 02:05 METAR KCXY 040705Z AUTO 00000KT 6SM BR OVC029 00/M02 A2982 RMK AO2 T00001017 =
2015-03-04 01:21 METAR KCXY 040621Z AUTO 28003KT 5SM UP BR SCT012 OVC034 00/M01 A2982 RMK AO2
                 P0001 T00001011 =
2015-03-04 00:56 METAR KCXY 040556Z AUTO VRB03KT 5SM UP BR BKN014 OVC034 00/M02 A2982 RMK AO2
                 RAB24E41UPB41 SLP102 P0001 60001 I6004 T00001017 10006 21017 56025 =
2015-03-04 00:47 METAR KCXY 040547Z AUTO VRB03KT 4SM UP BR BKN014 BKN029 OVC034 00/M02 A2983 RMK
                 AO2 RAB24E41UPB41 P0001 T00001017 =
2015-03-03 23:56 METAR KCXY 040456Z AUTO 00000KT 10SM OVC034 01/M02 A2982 RMK AO2 SLP102
                 T00061022 400061083 =
2015-03-03 22:56 METAR KCXY 040356Z AUTO 16003KT 10SM BKN038 OVC048 00/M03 A2985 RMK AO2 UPE19
                 SLP114 P0000 T00001028 =
2015-03-03 21:56 METAR KCXY 040256Z AUTO 00000KT 8SM UP SCT019 SCT024 OVC036 00/M03 A2989 RMK AO2
                 UPB03E17B43E45B51FZRAE03B17E43 SLP128 P0000 60000 I1001 I3004 T00001028 56031 =
2015-03-03 21:49 METAR KCXY 040249Z AUTO 17004KT 8SM SCT020 OVC036 00/M03 A2990 RMK AO2
                 UPB03E17B43E45FZRAE03B17E43 P0000 I1001 T00001028 =
2015-03-03 21:17 METAR KCXY 040217Z AUTO 00000KT 6SM -FZRA BR SCT017 SCT022 OVC039 M01/M03 A2991
                 RMK AO2 UPB03E17FZRAE03B17 P0000 I1001 T10061028 =
2015-03-03 21:09 METAR KCXY 040209Z AUTO 08003KT 7SM UP BKN019 BKN028 OVC039 M01/M03 A2992 RMK
                 AO2 UPB03FZRAE03 P0000 I1000 T10061028 =
2015-03-03 20:14 METAR KCXY 040114Z VRB04KT 5SM -FZRA BR BKN019 OVC029 M01/M03 A2994 RMK AO2
                 P0000 I1001 T10111033 =
2015-03-03 20:06 METAR KCXY 040106Z VRB05KT 5SM -FZRA BR SCT017 OVC030 M01/M03 A2994 RMK AO2
                 P0000 I1001 T10111033 =
2015-03-03 19:56 METAR KCXY 040056Z VRB03KT 6SM -FZRA BR BKN017 OVC030 M01/M03 A2995 RMK AO2
                 UPB08E16FZRAB16 SLP149 P0000 I1001 T10111033 =
2015-03-03 19:22 METAR KCXY 040022Z 13006KT 5SM -FZRA BR SCT016 OVC031 M02/M04 A2997 RMK AO2
                 UPB08E16FZRAB16 P0000 I1001 T10171039 =
2015-03-03 18:56 METAR KCXY 032356Z 14008KT 7SM BKN016 OVC021 M02/M04 A2999 RMK AO2 FZRAE35
                 SLP161 P0000 60000 I1001 I6006 T10171039 11011 21022 58031 =
2015-03-03 18:35 METAR KCXY 032335Z 14008KT 7SM OVC016 M02/M04 A3001 RMK AO2 FZRAE35 P0000 I1001
                 T10171044 =
2015-03-03 17:56 METAR KCXY 032256Z 13009KT 3SM -FZRA BR BKN014 BKN018 OVC035 M02/M04 A3002 RMK
                 AO2 PRESFR SLP171 P0000 I1003 T10171039 =
2015-03-03 17:42 METAR KCXY 032242Z 15009KT 2 1/2SM -FZRA BR BKN014 OVC038 M02/M04 A3004 RMK AO2
                 PRESFR P0000 I1002 T10221044 =
2015-03-03 17:20 METAR KCXY 032220Z 13009KT 3SM -FZRA BR FEW016 OVC039 M02/M04 A3006 RMK AO2
                 P0000 I1001 T10221044 =
2015-03-03 17:13 METAR KCXY 032213Z 14011G16KT 2 1/2SM FZRA BR SCT017 OVC039 M02/M04 A3006 RMK
                 AO2 P0000 I1001 T10221044 =
2015-03-03 16:56 METAR KCXY 032156Z 14008KT 3SM -FZRA FEW016 OVC037 M02/M05 A3008 RMK AO2
                 UPE47FZRAB47 SLP193 P0000 I1001 T10221050 =
2015-03-03 16:53 METAR KCXY 032153Z 14010KT 3SM -FZRA SCT018 OVC037 M02/M05 A3008 RMK AO2
                 UPE47FZRAB47 P0000 I1001 =
2015-03-03 15:56 METAR KCXY 032056Z 14009KT 6SM UP FEW025 OVC038 M02/M06 A3011 RMK AO2
                 UPB1958E04B24FZRAE1958 SLP202 P0000 60000 I1000 I3001 T10221056 56052 =

Support USWX by starting your Amazon purchase here.